Time;durP1;ratioP1;P1;durP2;ratioP2;P2;SDS_P1;SDS_P2;PMS_P1;PMS_P2;Temp;Humidity;BMP_temperature;BMP_pressure;BME280_temperature;BME280_humidity;BME280_pressure;Samples;Min_cycle;Max_cycle;Signal;HPM_P1;HPM_P2
2021/09/03 00:01:23;;;;;;;8.23;3.17;;;;;;;25.54;45.38;98975.56;5093320;28;20027;-49
2021/09/03 00:03:49;;;;;;;7.85;3.17;;;;;;;25.45;45.32;98974.59;5111643;28;20066;-48
2021/09/03 00:06:14;;;;;;;8.20;3.03;;;;;;;25.42;44.97;98977.88;5114748;28;20107;-49
2021/09/03 00:08:40;;;;;;;12.00;4.00;;;;;;;25.20;45.67;98973.84;5097078;28;20144;-49
2021/09/03 00:11:06;;;;;;;10.55;3.10;;;;;;;25.04;46.34;98973.25;5096849;28;20023;-48
2021/09/03 00:13:32;;;;;;;10.25;2.90;;;;;;;24.87;46.55;98973.75;5115344;28;20435;-48
2021/09/03 00:15:57;;;;;;;5.53;2.70;;;;;;;24.76;46.49;98966.09;5115243;28;20486;-49
2021/09/03 00:18:23;;;;;;;12.80;6.00;;;;;;;24.34;47.27;98979.13;5096795;28;20016;-49
2021/09/03 00:20:49;;;;;;;10.20;3.20;;;;;;;24.27;47.86;98973.31;5114532;28;20047;-49
2021/09/03 00:23:16;;;;;;;5.50;2.80;;;;;;;24.32;47.68;98975.94;5115091;28;20019;-48
2021/09/03 00:25:42;;;;;;;5.80;2.85;;;;;;;24.49;46.87;98978.19;5114976;28;20554;-49
2021/09/03 00:28:07;;;;;;;6.65;2.88;;;;;;;24.28;46.93;98967.66;5096633;28;20020;-48
2021/09/03 00:30:33;;;;;;;11.10;4.45;;;;;;;24.11;47.63;98976.13;5114868;28;20030;-48
2021/09/03 00:32:59;;;;;;;7.75;3.20;;;;;;;24.29;47.69;98974.63;5096612;28;20024;-49
2021/09/03 00:35:25;;;;;;;6.47;2.65;;;;;;;24.39;47.29;98972.91;5114846;28;20493;-49
2021/09/03 00:37:50;;;;;;;8.70;3.13;;;;;;;24.41;47.72;98982.28;5114890;28;20095;-49
2021/09/03 00:40:16;;;;;;;6.40;2.53;;;;;;;24.42;47.63;98972.34;5114755;28;20024;-49
2021/09/03 00:42:42;;;;;;;5.57;2.50;;;;;;;24.26;47.57;98974.38;5114778;28;20041;-49
2021/09/03 00:45:08;;;;;;;6.50;3.00;;;;;;;23.90;47.64;98977.38;5114658;28;20046;-49
2021/09/03 00:47:34;;;;;;;7.80;3.10;;;;;;;23.65;48.20;98975.69;5114583;28;20031;-48
2021/09/03 00:50:00;;;;;;;8.38;3.10;;;;;;;23.48;48.61;98978.72;5096236;28;20016;-48
2021/09/03 00:52:26;;;;;;;5.40;4.38;;;;;;;23.36;49.05;98975.59;5114429;28;20020;-49
2021/09/03 00:54:56;;;;;;;8.73;3.50;;;;;;;23.42;49.19;98971.81;5114488;28;20423;-49
2021/09/03 00:57:24;;;;;;;4.72;3.33;;;;;;;23.63;48.84;98975.16;5114476;28;20027;-48
2021/09/03 00:59:53;;;;;;;6.90;2.95;;;;;;;23.87;48.32;98983.31;5114452;28;20099;-49
2021/09/03 01:02:22;;;;;;;9.23;6.47;;;;;;;24.07;47.78;98980.47;5114258;28;20107;-48
2021/09/03 01:04:48;;;;;;;9.57;5.85;;;;;;;24.19;47.73;98972.03;5095997;28;20027;-48
2021/09/03 01:07:15;;;;;;;6.63;3.45;;;;;;;24.23;47.89;98975.75;5114247;28;20016;-48
2021/09/03 01:09:40;;;;;;;5.43;2.97;;;;;;;24.29;47.81;98965.78;5095893;28;20088;-48
2021/09/03 01:12:07;;;;;;;7.85;2.67;;;;;;;24.13;47.41;98959.75;5095753;28;20020;-49
2021/09/03 01:14:32;;;;;;;9.23;3.25;;;;;;;23.63;48.13;98964.44;5095826;28;20034;-48
2021/09/03 01:16:58;;;;;;;8.32;2.72;;;;;;;23.59;48.99;98966.88;5113018;28;20035;-49
2021/09/03 01:19:24;;;;;;;9.45;3.10;;;;;;;23.62;48.83;98966.31;5095621;28;20038;-49
2021/09/03 01:21:52;;;;;;;17.40;8.57;;;;;;;23.78;49.06;98966.22;5113427;28;20082;-48
2021/09/03 01:24:19;;;;;;;7.15;3.20;;;;;;;23.99;48.61;98969.56;5095618;28;20020;-49
2021/09/03 01:26:45;;;;;;;7.07;2.70;;;;;;;24.11;48.38;98961.94;5113937;28;20039;-48
2021/09/03 01:29:12;;;;;;;5.40;3.30;;;;;;;23.66;48.40;98967.38;5095604;28;20026;-48
2021/09/03 01:31:42;;;;;;;5.55;2.75;;;;;;;23.06;49.82;98964.78;5113706;28;20046;-48
2021/09/03 01:34:08;;;;;;;6.85;3.13;;;;;;;22.43;51.26;98967.91;5113715;28;20020;-48
2021/09/03 01:36:34;;;;;;;4.85;2.83;;;;;;;22.01;52.88;98965.56;5113700;28;20057;-48
2021/09/03 01:39:00;;;;;;;10.18;4.28;;;;;;;21.71;53.15;98976.00;5113615;28;20435;-48
2021/09/03 01:41:26;;;;;;;5.25;2.88;;;;;;;21.99;53.27;98976.50;5095308;28;20031;-48
2021/09/03 01:43:52;;;;;;;10.35;4.03;;;;;;;22.31;52.82;98970.09;5113555;28;20016;-48
2021/09/03 01:46:19;;;;;;;7.55;3.33;;;;;;;22.51;53.07;98969.25;5095149;28;20020;-48
2021/09/03 01:48:45;;;;;;;6.85;3.92;;;;;;;22.61;52.98;98977.22;5095185;28;20026;-48
2021/09/03 01:51:13;;;;;;;9.02;3.40;;;;;;;22.84;51.77;98980.38;5113302;28;20081;-48
2021/09/03 01:53:38;;;;;;;12.88;4.75;;;;;;;23.13;51.48;98981.34;5113388;28;20031;-48
2021/09/03 01:56:05;;;;;;;8.00;3.03;;;;;;;23.16;51.20;98977.34;5113276;28;20028;-48
2021/09/03 01:58:32;;;;;;;6.38;3.42;;;;;;;22.75;52.49;98988.16;5094966;28;20023;-48
2021/09/03 02:00:58;;;;;;;7.13;2.97;;;;;;;22.74;52.54;98986.56;5094878;28;20030;-48
2021/09/03 02:03:23;;;;;;;7.80;2.97;;;;;;;22.73;52.75;98992.97;5113143;28;20027;-49
2021/09/03 02:05:49;;;;;;;7.93;3.08;;;;;;;22.71;52.63;98984.44;5113129;28;20405;-48
2021/09/03 02:08:17;;;;;;;9.07;4.72;;;;;;;22.50;53.32;98994.41;5113059;28;20088;-48
2021/09/03 02:10:43;;;;;;;5.88;3.72;;;;;;;22.44;53.27;98995.47;5094663;28;20562;-48
2021/09/03 02:13:09;;;;;;;6.63;2.75;;;;;;;22.60;53.62;98991.69;5094527;28;20051;-48
2021/09/03 02:15:34;;;;;;;6.68;2.90;;;;;;;22.91;53.31;98989.69;5094595;28;20034;-49
2021/09/03 02:18:00;;;;;;;10.15;3.53;;;;;;;23.13;52.67;98985.91;5094585;28;20027;-48
2021/09/03 02:20:26;;;;;;;8.90;3.30;;;;;;;23.29;52.06;98986.63;5094182;28;20510;-48
2021/09/03 02:22:52;;;;;;;8.73;3.28;;;;;;;23.44;51.79;98991.06;5112835;28;20026;-49
2021/09/03 02:25:17;;;;;;;7.75;3.10;;;;;;;23.42;51.87;98990.56;5094469;28;20050;-48
2021/09/03 02:27:43;;;;;;;7.38;3.30;;;;;;;23.51;51.67;98991.59;5112489;28;20489;-49
2021/09/03 02:30:10;;;;;;;9.77;3.28;;;;;;;23.70;51.46;98987.16;5094401;28;20497;-48
2021/09/03 02:32:35;;;;;;;10.93;2.58;;;;;;;23.90;50.81;98993.47;5112578;28;20034;-48
2021/09/03 02:35:01;;;;;;;6.30;3.22;;;;;;;23.88;50.81;98985.69;5112601;28;20016;-49
2021/09/03 02:37:27;;;;;;;6.78;3.08;;;;;;;23.19;51.98;98990.16;5112643;28;20072;-48
2021/09/03 02:39:52;;;;;;;6.70;2.80;;;;;;;22.74;53.12;98990.03;5094327;28;20420;-48
2021/09/03 02:42:18;;;;;;;4.40;2.50;;;;;;;22.42;53.81;98993.06;5112509;28;20568;-48
2021/09/03 02:44:46;;;;;;;6.78;4.93;;;;;;;22.11;55.47;98997.63;5112495;28;20022;-48
2021/09/03 02:47:12;;;;;;;4.90;4.30;;;;;;;22.10;55.79;98988.81;5112444;28;20057;-48
2021/09/03 02:49:38;;;;;;;8.88;3.70;;;;;;;22.27;55.66;98982.41;5094159;28;20476;-48
2021/09/03 02:52:05;;;;;;;10.15;3.00;;;;;;;22.40;55.55;98994.44;5112291;28;20397;-48
2021/09/03 02:54:31;;;;;;;8.65;3.10;;;;;;;22.48;55.90;98988.53;5112311;28;20508;-48
2021/09/03 02:56:56;;;;;;;7.88;3.50;;;;;;;22.38;57.75;98981.31;5112284;28;20020;-49
2021/09/03 02:59:22;;;;;;;8.00;3.95;;;;;;;21.43;61.91;98971.94;5112254;28;20069;-48
2021/09/03 03:01:48;;;;;;;7.93;4.90;;;;;;;20.35;65.36;98974.09;5112267;28;20031;-48
2021/09/03 03:04:13;;;;;;;7.25;3.83;;;;;;;19.65;67.17;98975.13;5093863;28;20034;-48
2021/09/03 03:06:39;;;;;;;6.45;4.53;;;;;;;19.21;69.27;98970.72;5093923;28;20027;-47
2021/09/03 03:09:05;;;;;;;6.18;3.53;;;;;;;18.98;70.53;98969.13;5093845;28;20031;-47
2021/09/03 03:11:30;;;;;;;6.32;3.80;;;;;;;18.76;71.10;98959.25;5093729;28;20020;-47
2021/09/03 03:14:04;;;;;;;5.88;3.88;;;;;;;18.69;71.70;98956.00;5112138;28;20107;-47
2021/09/03 03:16:30;;;;;;;15.88;12.68;;;;;;;18.63;71.72;98956.16;5112180;28;20068;-50
2021/09/03 03:18:56;;;;;;;8.05;5.40;;;;;;;18.57;72.52;98949.97;5112055;28;20020;-50
2021/09/03 03:21:22;;;;;;;6.90;4.60;;;;;;;18.50;72.65;98952.81;5077654;28;20058;-50
2021/09/03 03:23:47;;;;;;;9.68;6.82;;;;;;;18.46;73.52;98964.19;5071500;28;20017;-50
2021/09/03 03:26:13;;;;;;;12.60;11.13;;;;;;;18.53;73.21;98965.63;5070141;28;20024;-50
2021/09/03 03:28:39;;;;;;;9.82;5.30;;;;;;;18.76;73.29;98950.50;5071482;28;20402;-50
2021/09/03 03:31:04;;;;;;;91.95;83.15;;;;;;;18.93;73.14;98951.25;5071307;28;20031;-50
2021/09/03 03:33:30;;;;;;;70.68;64.30;;;;;;;19.21;74.08;98954.75;5070138;28;20017;-50
2021/09/03 03:35:56;;;;;;;25.60;21.98;;;;;;;19.76;73.50;98942.25;5071364;28;20016;-50
2021/09/03 03:38:21;;;;;;;8.68;5.68;;;;;;;20.06;71.79;98936.34;5070047;28;20032;-50
2021/09/03 03:40:47;;;;;;;7.07;3.78;;;;;;;19.82;70.67;98935.09;5073892;28;20020;-51
2021/09/03 03:43:13;;;;;;;7.30;4.22;;;;;;;19.60;70.75;98943.97;5075232;28;20017;-51
2021/09/03 03:45:38;;;;;;;9.93;4.88;;;;;;;19.60;71.88;98943.13;5075195;28;20028;-51
2021/09/03 03:48:04;;;;;;;6.45;4.35;;;;;;;20.04;71.70;98938.47;5075163;28;20024;-50
2021/09/03 03:50:30;;;;;;;15.10;7.32;;;;;;;20.31;70.73;98941.03;5073627;28;20021;-50
2021/09/03 03:52:56;;;;;;;12.15;11.00;;;;;;;20.37;70.61;98952.53;5074977;28;20041;-50
2021/09/03 03:55:24;;;;;;;6.53;4.78;;;;;;;20.33;70.71;98951.44;5074981;28;20063;-51
2021/09/03 03:57:50;;;;;;;30.25;27.17;;;;;;;20.31;71.56;98948.22;5074913;28;20031;-50
2021/09/03 04:00:16;;;;;;;10.80;3.85;;;;;;;20.61;70.49;98960.16;5074842;28;20433;-50
2021/09/03 04:02:42;;;;;;;7.68;4.95;;;;;;;20.42;69.03;98957.09;5075073;28;20095;-50
2021/09/03 04:05:08;;;;;;;9.40;4.65;;;;;;;20.09;69.41;98959.00;5074782;28;20059;-50
2021/09/03 04:07:34;;;;;;;10.77;7.05;;;;;;;20.15;70.36;98958.00;5074745;28;20039;-50
2021/09/03 04:09:59;;;;;;;8.85;4.07;;;;;;;20.78;69.40;98955.41;5074696;28;20020;-50
2021/09/03 04:12:25;;;;;;;4.40;3.40;;;;;;;21.23;67.41;98943.31;5074649;28;20017;-50
2021/09/03 04:14:51;;;;;;;6.88;4.22;;;;;;;21.40;67.24;98960.97;5074599;28;20016;-50
2021/09/03 04:17:16;;;;;;;6.95;3.30;;;;;;;21.82;66.23;98958.09;5074581;28;20503;-50
2021/09/03 04:19:42;;;;;;;5.07;3.33;;;;;;;22.02;65.22;98967.16;5073230;28;20027;-50
2021/09/03 04:22:08;;;;;;;8.63;6.22;;;;;;;21.82;63.68;98967.97;5072921;28;20048;-50
2021/09/03 04:24:34;;;;;;;10.48;7.60;;;;;;;21.18;64.55;98963.84;5074471;28;20103;-50
2021/09/03 04:26:59;;;;;;;10.05;4.20;;;;;;;20.57;65.77;98975.03;5074441;28;20028;-50
2021/09/03 04:29:26;;;;;;;5.20;3.83;;;;;;;20.22;67.04;98976.41;5074377;28;20026;-50
2021/09/03 04:31:52;;;;;;;9.15;6.47;;;;;;;20.30;67.45;98967.94;5072903;28;20020;-50
2021/09/03 04:34:18;;;;;;;9.65;8.75;;;;;;;20.60;67.14;98974.53;5072999;28;20115;-50
2021/09/03 04:36:43;;;;;;;9.73;7.95;;;;;;;20.82;66.14;98969.84;5074224;28;20032;-50
2021/09/03 04:39:09;;;;;;;13.60;8.57;;;;;;;21.14;65.36;98972.34;5072882;28;20039;-50
2021/09/03 04:41:35;;;;;;;11.10;7.15;;;;;;;21.56;64.81;98965.28;5074154;28;20024;-50
2021/09/03 04:44:00;;;;;;;7.93;4.32;;;;;;;21.70;64.05;98958.34;5072802;28;20032;-50
2021/09/03 04:46:26;;;;;;;3.97;3.42;;;;;;;21.49;62.97;98968.22;5074094;28;20082;-50
2021/09/03 04:48:52;;;;;;;5.88;4.03;;;;;;;21.04;64.36;98963.53;5073993;28;20020;-50
2021/09/03 04:51:17;;;;;;;4.25;3.85;;;;;;;20.72;65.03;98972.47;5072414;28;20020;-50
2021/09/03 04:53:43;;;;;;;7.63;4.43;;;;;;;20.37;66.17;98960.53;5073983;28;20021;-50
2021/09/03 04:56:09;;;;;;;10.27;5.05;;;;;;;20.05;67.15;98969.38;5073907;28;20021;-50
2021/09/03 04:58:34;;;;;;;5.82;4.50;;;;;;;19.92;67.54;98964.47;5073883;28;20420;-50
2021/09/03 05:01:00;;;;;;;9.75;4.38;;;;;;;19.86;67.57;98968.97;5073811;28;20115;-50
2021/09/03 05:03:25;;;;;;;9.88;5.40;;;;;;;19.84;67.72;98970.25;5072437;28;20032;-50
2021/09/03 05:05:51;;;;;;;5.88;4.25;;;;;;;19.82;67.75;98975.03;5072438;28;20566;-50
2021/09/03 05:08:17;;;;;;;9.77;5.40;;;;;;;19.72;67.75;98968.59;5073688;28;20502;-50
2021/09/03 05:10:42;;;;;;;4.65;3.20;;;;;;;19.69;67.65;98966.38;5073486;28;20371;-50
2021/09/03 05:13:08;;;;;;;16.83;10.95;;;;;;;19.78;67.62;98958.78;5073606;28;20035;-50
2021/09/03 05:15:40;;;;;;;15.82;7.65;;;;;;;20.02;67.62;98958.41;5073491;28;20017;-50
2021/09/03 05:18:08;;;;;;;9.20;4.85;;;;;;;20.33;66.76;98962.09;5073485;28;20024;-50
2021/09/03 05:20:34;;;;;;;6.25;3.78;;;;;;;20.38;66.13;98958.66;5084828;28;20097;-50
2021/09/03 05:23:00;;;;;;;5.95;4.30;;;;;;;20.28;66.71;98962.06;5113972;28;20024;-50
2021/09/03 05:25:26;;;;;;;7.68;5.60;;;;;;;20.28;67.57;98954.06;5113935;28;20023;-50
2021/09/03 05:27:51;;;;;;;14.80;7.53;;;;;;;20.31;68.16;98950.91;5095627;28;20522;-50
2021/09/03 05:30:17;;;;;;;21.10;15.50;;;;;;;20.28;68.71;98954.06;5095474;28;20073;-50
2021/09/03 05:32:43;;;;;;;28.30;24.58;;;;;;;20.38;68.35;98956.00;5095297;28;20049;-50
2021/09/03 05:35:12;;;;;;;174.57;158.02;;;;;;;20.34;68.03;98951.19;5113623;28;20031;-50
2021/09/03 05:37:38;;;;;;;201.13;182.05;;;;;;;20.48;68.17;98956.88;5113719;28;20026;-50
2021/09/03 05:40:06;;;;;;;39.83;34.55;;;;;;;20.50;67.43;98953.94;5112280;28;20106;-50
2021/09/03 05:42:32;;;;;;;25.30;22.30;;;;;;;20.49;67.42;98955.00;5112273;28;20516;-50
2021/09/03 05:44:58;;;;;;;24.85;19.48;;;;;;;20.39;67.60;98949.63;5113566;28;20028;-50
2021/09/03 05:47:23;;;;;;;9.35;7.35;;;;;;;20.37;67.71;98949.06;5113765;28;20027;-50
2021/09/03 05:49:49;;;;;;;15.95;12.90;;;;;;;20.35;67.49;98954.66;5095109;28;20400;-50
2021/09/03 05:52:17;;;;;;;10.73;7.20;;;;;;;20.27;67.58;98955.13;5113320;28;20031;-50
2021/09/03 05:54:43;;;;;;;5.18;4.68;;;;;;;20.18;67.98;98951.34;5113359;28;20015;-50
2021/09/03 05:57:10;;;;;;;5.82;5.20;;;;;;;20.22;68.12;98955.09;5113287;28;20393;-50
2021/09/03 05:59:35;;;;;;;8.73;5.97;;;;;;;20.22;67.79;98955.09;5095012;28;20116;-50
2021/09/03 06:02:01;;;;;;;8.50;6.75;;;;;;;20.32;67.73;98950.66;5112934;28;20073;-50
2021/09/03 06:04:27;;;;;;;7.68;6.10;;;;;;;20.46;67.06;98955.50;5112940;28;20024;-50
2021/09/03 06:06:53;;;;;;;8.00;5.82;;;;;;;20.51;66.94;98950.22;5094784;28;20028;-50
2021/09/03 06:09:18;;;;;;;8.75;7.93;;;;;;;20.57;66.58;98951.84;5113129;28;20206;-50
2021/09/03 06:11:44;;;;;;;83.00;74.28;;;;;;;20.67;66.34;98957.25;5094634;28;20493;-50
2021/09/03 06:14:10;;;;;;;139.63;127.25;;;;;;;20.83;65.99;98950.13;5113003;28;20052;-50
2021/09/03 06:16:35;;;;;;;40.30;36.55;;;;;;;20.92;65.43;98953.88;5113011;28;20098;-50
2021/09/03 06:19:01;;;;;;;51.03;43.65;;;;;;;20.80;65.44;98953.28;5111665;28;20563;-50
2021/09/03 06:21:27;;;;;;;16.17;14.77;;;;;;;20.90;65.49;98955.22;5112561;28;20116;-50
2021/09/03 06:23:53;;;;;;;87.78;67.15;;;;;;;20.85;64.96;98950.66;5094529;28;20043;-50
2021/09/03 06:26:19;;;;;;;15.82;9.48;;;;;;;20.66;65.51;98957.50;5111440;28;20412;-50
2021/09/03 06:28:44;;;;;;;16.73;14.30;;;;;;;20.61;65.89;98950.28;5112777;28;20144;-50
2021/09/03 06:31:10;;;;;;;14.57;7.30;;;;;;;21.12;65.21;98958.47;5112607;28;20550;-50
2021/09/03 06:33:36;;;;;;;7.88;5.38;;;;;;;21.72;63.33;98958.88;5094417;28;20043;-50
2021/09/03 06:36:02;;;;;;;27.73;7.28;;;;;;;21.97;62.07;98959.13;5112638;28;20023;-51
2021/09/03 06:38:28;;;;;;;11.77;5.38;;;;;;;22.30;60.94;98958.59;5094279;28;20057;-51
2021/09/03 06:40:54;;;;;;;24.42;15.27;;;;;;;22.67;60.35;98962.75;5112522;28;20024;-50
2021/09/03 06:43:20;;;;;;;23.52;10.65;;;;;;;22.93;59.02;98957.31;5112445;28;20034;-50
2021/09/03 06:45:45;;;;;;;15.93;6.50;;;;;;;22.98;58.23;98967.19;5111123;28;20023;-51
2021/09/03 06:48:11;;;;;;;10.73;4.40;;;;;;;22.84;58.21;98961.63;5112440;28;20015;-50
2021/09/03 06:50:37;;;;;;;10.07;4.50;;;;;;;22.61;58.34;98969.22;5112335;28;20031;-51
2021/09/03 06:53:05;;;;;;;65.47;58.75;;;;;;;22.52;58.30;98970.84;5112390;28;20042;-51
2021/09/03 06:55:31;;;;;;;14.32;6.82;;;;;;;22.66;58.12;98971.09;5112339;28;20078;-50
2021/09/03 06:57:57;;;;;;;28.77;17.63;;;;;;;22.82;57.44;98969.13;5112288;28;20026;-51
2021/09/03 07:00:23;;;;;;;32.75;29.23;;;;;;;22.96;57.18;98964.00;5110982;28;20023;-51
2021/09/03 07:02:48;;;;;;;20.10;7.20;;;;;;;23.11;56.74;98961.28;5112231;28;20016;-51
2021/09/03 07:05:14;;;;;;;10.57;4.18;;;;;;;23.31;56.07;98963.84;5093951;28;20477;-51
2021/09/03 07:07:40;;;;;;;20.67;6.55;;;;;;;23.54;56.02;98964.22;5093919;28;20509;-50
2021/09/03 07:10:06;;;;;;;9.05;4.05;;;;;;;23.90;55.00;98966.66;5112163;28;20024;-50
2021/09/03 07:12:32;;;;;;;10.48;4.90;;;;;;;23.58;55.10;98967.16;5112081;28;20043;-51
2021/09/03 07:14:58;;;;;;;8.82;4.45;;;;;;;23.36;56.24;98964.88;5113678;28;20484;-51
2021/09/03 07:17:23;;;;;;;6.80;4.57;;;;;;;23.13;56.62;98967.16;5116420;28;20458;-51
2021/09/03 07:19:49;;;;;;;14.73;4.93;;;;;;;22.82;57.06;98969.94;5116378;28;20485;-50
2021/09/03 07:22:15;;;;;;;14.75;6.85;;;;;;;22.66;57.36;98977.22;5115876;28;20052;-51
2021/09/03 07:24:41;;;;;;;10.18;4.80;;;;;;;22.67;57.07;98970.78;5116283;28;20114;-50
2021/09/03 07:27:07;;;;;;;10.90;4.13;;;;;;;22.76;56.96;98975.56;5116255;28;20019;-51
2021/09/03 07:29:32;;;;;;;9.98;5.00;;;;;;;22.93;56.74;98976.84;5097855;28;20114;-51
2021/09/03 07:31:58;;;;;;;15.30;6.90;;;;;;;23.29;56.70;98968.66;5097683;28;20603;-51
2021/09/03 07:34:24;;;;;;;16.40;6.40;;;;;;;23.77;55.36;98965.44;5097830;28;20024;-51
2021/09/03 07:36:50;;;;;;;34.00;7.22;;;;;;;23.88;55.05;98968.81;5116285;28;20031;-51
2021/09/03 07:39:20;;;;;;;25.73;6.57;;;;;;;23.96;54.03;98976.25;5115973;28;20048;-51
2021/09/03 07:41:47;;;;;;;11.68;10.27;;;;;;;24.27;53.29;98973.31;5115871;28;20031;-49
2021/09/03 07:44:12;;;;;;;12.15;5.32;;;;;;;24.55;52.43;98969.03;5115923;28;20115;-48
2021/09/03 07:46:38;;;;;;;16.02;6.38;;;;;;;24.46;52.38;98968.81;5097511;28;20106;-48
2021/09/03 07:49:05;;;;;;;6.22;4.55;;;;;;;24.40;52.09;98969.16;5097498;28;20020;-49
2021/09/03 07:51:32;;;;;;;9.27;4.10;;;;;;;24.35;52.10;98972.69;5115662;28;20034;-48
2021/09/03 07:53:58;;;;;;;4.82;4.03;;;;;;;24.35;52.01;98978.06;5097350;28;20020;-48
2021/09/03 07:56:24;;;;;;;9.80;4.60;;;;;;;24.15;52.12;98975.56;5115664;28;20016;-48
2021/09/03 07:58:50;;;;;;;18.48;13.35;;;;;;;23.95;53.08;98980.03;5115595;28;20521;-48
2021/09/03 08:01:16;;;;;;;8.13;4.80;;;;;;;23.97;53.24;98977.06;5115588;28;20020;-48
2021/09/03 08:03:41;;;;;;;11.27;8.07;;;;;;;23.80;54.02;98969.44;5097176;28;20047;-49
2021/09/03 08:06:07;;;;;;;11.80;10.57;;;;;;;23.75;54.09;98972.13;5115432;28;20055;-48
2021/09/03 08:08:33;;;;;;;9.40;5.47;;;;;;;23.97;53.49;98972.50;5115454;28;20024;-48
2021/09/03 08:10:59;;;;;;;12.43;6.28;;;;;;;24.45;52.67;98969.09;5115313;28;22318;-48
2021/09/03 08:13:25;;;;;;;7.25;5.28;;;;;;;24.64;51.60;98969.97;5115376;28;20123;-48
2021/09/03 08:15:52;;;;;;;11.65;5.90;;;;;;;24.52;51.91;98962.31;5096986;28;20538;-48
2021/09/03 08:18:17;;;;;;;14.70;7.20;;;;;;;24.42;52.12;98962.41;5115340;28;20077;-48
2021/09/03 08:20:45;;;;;;;6.35;4.88;;;;;;;24.47;52.15;98965.06;5114924;28;20048;-48
2021/09/03 08:23:12;;;;;;;6.55;4.25;;;;;;;24.20;52.15;98975.50;5115194;28;20108;-48
2021/09/03 08:25:39;;;;;;;10.50;4.45;;;;;;;23.93;53.32;98977.63;5114612;28;20102;-48
2021/09/03 08:28:04;;;;;;;7.53;4.15;;;;;;;23.88;53.35;98971.50;5115025;28;20111;-48
2021/09/03 08:30:30;;;;;;;9.65;4.25;;;;;;;23.83;53.55;98966.19;5096636;28;20110;-48
2021/09/03 08:32:56;;;;;;;6.70;4.82;;;;;;;23.85;53.15;98974.75;5114973;28;20035;-48
2021/09/03 08:35:23;;;;;;;11.15;4.50;;;;;;;23.81;53.75;98971.84;5114904;28;20489;-48
2021/09/03 08:37:50;;;;;;;6.38;4.28;;;;;;;23.89;53.75;98965.88;5114886;28;20024;-48
2021/09/03 08:40:16;;;;;;;9.20;4.43;;;;;;;24.08;53.09;98967.84;5114793;28;20044;-48
2021/09/03 08:42:42;;;;;;;5.03;3.90;;;;;;;24.16;53.13;98969.91;5114782;28;20066;-49
2021/09/03 08:45:12;;;;;;;8.70;4.70;;;;;;;24.32;54.01;98973.25;5114767;28;20043;-48
2021/09/03 08:47:40;;;;;;;12.45;8.48;;;;;;;24.64;53.73;98966.50;5114686;28;20051;-48
2021/09/03 08:50:07;;;;;;;18.23;9.25;;;;;;;25.24;52.23;98963.38;5114648;28;20022;-48
2021/09/03 08:52:33;;;;;;;6.82;3.88;;;;;;;26.02;49.50;98961.91;5096188;28;20034;-48
2021/09/03 08:54:59;;;;;;;6.75;3.65;;;;;;;26.25;47.67;98964.72;5114628;28;20023;-48
2021/09/03 08:57:25;;;;;;;13.93;3.95;;;;;;;25.99;47.80;98964.38;5096152;28;20115;-48
2021/09/03 08:59:51;;;;;;;5.70;3.88;;;;;;;25.73;48.19;98959.38;5114458;28;20058;-48
2021/09/03 09:02:22;;;;;;;9.30;3.33;;;;;;;25.60;48.84;98952.09;5114467;28;20032;-48
2021/09/03 09:04:52;;;;;;;10.20;5.30;;;;;;;25.92;48.06;98959.38;5096065;28;20038;-48
2021/09/03 09:07:19;;;;;;;8.38;3.92;;;;;;;26.11;47.25;98951.25;5114379;28;20020;-48
2021/09/03 09:09:49;;;;;;;7.13;3.60;;;;;;;26.64;46.33;98955.38;5095975;28;20024;-49
2021/09/03 09:12:18;;;;;;;6.38;3.63;;;;;;;26.60;45.47;98946.31;5114211;28;20546;-49
2021/09/03 09:15:05;;;;;;;7.40;3.45;;;;;;;26.71;46.00;98953.09;5095857;28;20076;-48
2021/09/03 09:17:42;;;;;;;5.88;3.90;;;;;;;26.89;45.10;98954.09;5114077;28;20039;-48
2021/09/03 09:20:19;;;;;;;10.27;3.72;;;;;;;27.11;44.71;98945.25;5114169;28;20016;-48
2021/09/03 09:22:53;;;;;;;6.38;4.15;;;;;;;27.96;43.14;98942.75;5113803;28;20053;-49
2021/09/03 09:25:40;;;;;;;7.75;6.50;;;;;;;29.00;41.58;98938.84;5113896;28;20550;-48
2021/09/03 09:28:17;;;;;;;5.45;4.68;;;;;;;29.82;39.65;98944.41;5113591;28;20042;-49
2021/09/03 09:30:44;;;;;;;7.13;4.80;;;;;;;30.74;38.14;98941.19;5095326;28;20371;-51
2021/09/03 09:33:22;;;;;;;5.70;3.40;;;;;;;32.38;35.29;98937.34;5095533;28;20108;-51
2021/09/03 09:35:59;;;;;;;7.00;4.07;;;;;;;32.70;34.29;98929.44;5113813;28;20509;-50
2021/09/03 09:38:31;;;;;;;9.30;5.47;;;;;;;33.21;33.43;98937.16;5112896;28;20028;-49
2021/09/03 09:41:02;;;;;;;12.23;4.53;;;;;;;33.14;33.65;98932.31;5113656;28;20497;-50
2021/09/03 09:43:36;;;;;;;5.55;3.40;;;;;;;33.15;33.33;98931.16;5113601;28;20015;-50
2021/09/03 09:46:12;;;;;;;7.30;4.40;;;;;;;34.01;32.13;98928.03;5113506;28;20051;-50
2021/09/03 09:48:51;;;;;;;15.68;5.75;;;;;;;34.75;32.23;98929.41;5113532;28;20016;-49
2021/09/03 09:51:28;;;;;;;8.20;4.00;;;;;;;34.95;31.60;98914.66;5113329;28;20482;-50
2021/09/03 09:54:09;;;;;;;5.72;3.75;;;;;;;34.62;32.02;98920.53;5113648;28;20393;-49
2021/09/03 09:56:45;;;;;;;8.50;4.75;;;;;;;35.79;30.92;98915.91;5113359;28;20035;-49
2021/09/03 09:59:12;;;;;;;5.03;3.30;;;;;;;36.46;29.68;98911.13;5113382;28;20024;-52
2021/09/03 10:01:41;;;;;;;4.05;2.75;;;;;;;36.93;28.47;98905.16;5094956;28;20036;-52
2021/09/03 10:04:19;;;;;;;7.88;3.42;;;;;;;37.03;28.22;98900.19;5094933;28;20393;-51
2021/09/03 10:06:48;;;;;;;8.57;6.05;;;;;;;37.14;28.60;98892.91;5094944;28;20050;-52
2021/09/03 10:09:16;;;;;;;10.45;3.83;;;;;;;38.08;27.23;98898.16;5113170;28;20427;-52
2021/09/03 10:11:44;;;;;;;7.60;3.58;;;;;;;39.17;25.72;98888.59;5112988;28;20022;-52
2021/09/03 10:14:15;;;;;;;8.00;2.80;;;;;;;40.00;24.24;98889.53;5113020;28;20019;-52
2021/09/03 10:16:41;;;;;;;14.48;3.40;;;;;;;40.38;24.04;98895.41;5113025;28;20055;-52
2021/09/03 10:19:08;;;;;;;4.20;2.80;;;;;;;39.48;23.01;98887.91;5112957;28;20050;-52
2021/09/03 10:21:39;;;;;;;6.90;4.28;;;;;;;37.49;24.63;98891.72;5112549;28;20108;-51
2021/09/03 10:24:14;;;;;;;3.35;2.75;;;;;;;35.51;26.95;98883.41;5112835;28;20080;-51
2021/09/03 10:26:46;;;;;;;4.90;2.88;;;;;;;34.08;28.63;98880.34;5112860;28;20103;-50
2021/09/03 10:29:31;;;;;;;9.48;3.25;;;;;;;33.55;29.48;98877.84;5112847;28;20594;-50
2021/09/03 10:32:10;;;;;;;2.85;2.30;;;;;;;32.96;30.21;98880.09;5112644;28;20024;-49
2021/09/03 10:34:47;;;;;;;3.75;2.70;;;;;;;32.96;30.68;98876.56;5113032;28;20070;-50
2021/09/03 10:37:12;;;;;;;6.25;3.78;;;;;;;33.37;30.16;98877.34;5112651;28;20027;-49
2021/09/03 10:40:09;;;;;;;3.45;2.47;;;;;;;33.69;29.71;98869.28;5112602;28;20023;-50
2021/09/03 10:42:38;;;;;;;7.00;3.20;;;;;;;34.73;28.33;98860.81;5111283;28;20054;-49
2021/09/03 10:45:09;;;;;;;10.52;4.82;;;;;;;36.10;26.59;98858.63;5112524;28;20026;-50
2021/09/03 10:47:42;;;;;;;14.80;8.43;;;;;;;36.77;25.91;98861.59;5094184;28;20122;-50
2021/09/03 10:50:13;;;;;;;10.00;3.88;;;;;;;37.16;24.94;98855.03;5112354;28;20020;-52
2021/09/03 10:52:39;;;;;;;5.45;2.67;;;;;;;37.22;24.69;98853.50;5112405;28;20028;-51
2021/09/03 10:55:09;;;;;;;5.20;3.40;;;;;;;37.20;24.64;98849.59;5112376;28;20058;-52
2021/09/03 10:57:57;;;;;;;10.65;8.05;;;;;;;37.55;25.16;98851.88;5112297;28;20049;-52
2021/09/03 11:00:24;;;;;;;10.43;5.03;;;;;;;38.01;23.98;98850.72;5112309;28;20046;-52
2021/09/03 11:02:50;;;;;;;5.20;3.35;;;;;;;37.79;23.22;98842.31;5112341;28;20062;-52
2021/09/03 11:05:16;;;;;;;4.70;2.13;;;;;;;37.44;23.16;98845.53;5112327;28;20478;-51
2021/09/03 11:07:43;;;;;;;6.90;5.18;;;;;;;36.46;24.53;98843.56;5112288;28;20102;-51
2021/09/03 11:10:20;;;;;;;49.17;44.95;;;;;;;35.08;26.79;98841.66;5112276;28;20378;-50
2021/09/03 11:12:53;;;;;;;5.78;4.68;;;;;;;34.41;28.07;98841.81;5112476;28;20409;-50
2021/09/03 11:15:20;;;;;;;7.32;2.83;;;;;;;33.54;28.71;98841.63;5112237;28;20043;-50
2021/09/03 11:17:46;;;;;;;3.78;3.33;;;;;;;33.03;29.98;98841.44;5112179;28;20020;-50
2021/09/03 11:20:15;;;;;;;6.50;4.97;;;;;;;33.58;29.78;98828.13;5112151;28;20131;-50
2021/09/03 11:22:42;;;;;;;6.72;4.20;;;;;;;34.71;28.66;98835.84;5111603;28;20109;-50
2021/09/03 11:25:08;;;;;;;3.55;2.80;;;;;;;35.63;27.37;98827.06;5112081;28;20026;-50
2021/09/03 11:27:37;;;;;;;5.47;2.90;;;;;;;36.58;26.38;98818.75;5112083;28;20439;-52
2021/09/03 11:30:17;;;;;;;11.70;3.17;;;;;;;37.38;25.32;98820.44;5111961;28;20019;-52